Anza Borrego Desert Research Center, California Weather observations

Data are for 10 minute period ending at time listed.
 Day   Time   Solar   Ave.   Ave.  Ave.  Vector  Max.   Baro.   Total    
  of    of     Rad.   Air    Rel.  Wind   Wind   Wind  Press.  Precip.   
Year   Day            Temp.  Hum.  Speed  Dir.   Gust                    
2014   (PST)  Kw/m2    F      %     mph   deg.    mph    mb.     in.     
-------------------------------------------------------------------------
 210    9:00   0.70  101.6    20    3.1    94     5.8   796.9    0.00 
 210    9:10   0.72  102.1    20    4.3   102     8.1   982.4    0.00 
 210    9:20   0.72  102.1    20    3.8    82     7.4   982.5    0.00 
 210    9:30   0.79  102.8    19    4.3   100     8.2   982.5    0.00 
 210    9:40   0.80  103.0    19    2.9   110     6.1   982.4    0.00 
 210    9:50   0.82  103.9    19    3.4    41     8.8   982.3    0.00 
 210   10:00   0.82  103.8    20    4.2    33     9.9   982.2    0.00 
 210   10:10   0.86  103.7    20    6.4    72    10.9   982.2    0.00 
 210   10:20   0.87  104.6    20    2.9   107     6.8   982.1    0.00 
 210   10:30   0.88  105.0    20    3.0   224     6.4   982.1    0.00 
 210   10:40   0.90  105.4    20    3.9   105     8.9   982.0    0.00 
 210   10:50   0.91  105.8    19    5.0    84    10.2   981.9    0.00 
 210   11:00   0.92  105.5    19    7.5    68    11.8   981.8    0.00 
 210   11:10   0.93  105.2    19    6.3   104    12.2   981.7    0.00 
 210   11:20   0.93  105.9    19    4.9   143     8.9   981.6    0.00 
 210   11:30   0.93  106.3    18    5.4   141    10.3   981.5    0.00 
 210   11:40   0.92  106.8    18    5.6    90    19.6   981.3    0.00 
 210   11:50   0.94  107.9    18    7.5    65    14.1   981.2    0.00 
 210   12:00   0.96  106.8    18    6.1   118    12.6   981.2    0.00 
 210   12:10   0.93  106.5    18    5.7    81    11.2   981.1    0.00 
 210   12:20   0.81  106.7    18   10.1    99    18.4   980.9    0.00 
 210   12:30   0.76  106.8    18    4.7   136     9.6   980.9    0.00 
 210   12:40   0.62  107.1    18    5.5    63    10.1   980.8    0.00 
 210   12:50   0.70  107.4    18    4.4    88     9.3   980.7    0.00 
 210   13:00   1.02  108.7    17    5.9    75    10.9   980.6    0.00 
 210   13:10   1.00  109.0    17    7.8    78    13.7   980.5    0.00 
 210   13:20   0.88  108.8    16    9.5   114    17.8   980.5    0.00 
 210   13:30   0.64  108.3    17    9.9   124    13.7   980.4    0.00 
 210   13:40   0.52  107.7    17    4.3   128    11.3   980.3    0.00 
 210   13:50   0.30  107.2    17    6.9   140    14.4   980.0    0.00 
 210   14:00   0.29  106.7    17   11.6   140    19.1   979.7    0.00 
 210   14:10   0.51  107.2    17    4.6   113     9.2   979.7    0.00 
 210   14:20   0.31  107.1    17    4.2   128     7.9   979.5    0.00 
 210   14:30   0.44  106.3    18    3.3    44     5.8   979.3    0.00 
 210   14:40   0.84  108.7    17    4.6    17     9.1   979.2    0.00 
 210   14:50   0.71  109.3    16    4.4    32    14.0   979.2    0.00 
 210   15:00   0.72  109.6    16    6.4    25    12.2   979.2    0.00 
 210   15:10   0.66  109.0    16    4.6    78    13.7   979.1    0.00 
 210   15:20   0.63  110.1    15    5.7   266    16.4   979.2    0.00 
 210   15:30   0.60  109.5    14   10.5   280    20.1   979.0    0.00 
 210   15:40   0.58  109.8    14   11.7   270    22.4   978.9    0.00 
 210   15:50   0.55  108.1    14   12.7   272    18.6   978.9    0.00 
 210   16:00   0.51  108.1    14   15.5   261    22.5   978.8    0.00 
 210   16:10   0.47  108.0    14   13.6   274    21.5   978.7    0.00 
 210   16:20   0.44  106.9    14   15.7   270    23.4   978.7    0.00 
 210   16:30   0.40  106.6    14   14.8   272    21.0   978.7    0.00 
 210   16:40   0.36  106.1    14   16.9   278    25.1   978.6    0.00 
 210   16:50   0.33  105.9    14   15.3   275    20.8   978.5    0.00 
 210   17:00   0.30  105.7    14   12.1   278    18.8   978.4    0.00 
 210   17:10   0.26  106.5    14    9.4   289    15.1   978.3    0.00 
 210   17:20   0.23  105.8    14   10.0   289    15.1   978.2    0.00 
 210   17:30   0.20  105.8    14    7.5   306    12.0   978.3    0.00 
 210   17:40   0.08  104.7    15    8.2   301    15.0   978.3    0.00 
 210   17:50   0.03  103.3    15    7.1   309    13.7   978.3    0.00 
 210   18:00   0.03  102.6    16    8.6   314    14.4   978.3    0.00 
 210   18:10   0.03  101.7    16    9.0   325    17.5   978.3    0.00 
 210   18:20   0.01  100.9    16    9.6   320    17.7   978.3    0.00 
 210   18:30   0.01  100.2    17   11.3   319    21.0   978.2    0.00 
 210   18:40   0.01   99.9    17   10.4   319    17.3   972.9    0.00 
 210   18:50   0.00   99.7    17   12.4   317    20.7   553.4    0.00 
 210   19:00   0.00   99.2    17   11.2   320    19.6   502.3    0.00 
 210   19:10   0.00   99.1    17    9.5   318    17.5   502.3    0.00 
 210   19:20   0.00   98.8    17    8.4   327    15.6   502.3    0.00 
 210   19:30   0.00   98.6    17   10.4   320    18.9   502.3    0.00 
 210   19:40   0.00   98.7    17   12.0   320    21.5   502.3    0.00 
 210   19:50   0.00   98.2    17   11.2   326    18.6   502.3    0.00 
 210   20:00   0.00   98.1    17    9.8   322    17.3   502.3    0.00 
 210   20:10   0.00   98.1    17    6.0   328    15.8   502.3    0.00 
 210   20:20   0.00   97.9    17    4.8   300    10.8   502.3    0.00 
 210   20:30   0.00   97.1    18    3.4    84     7.2   502.3    0.00 
 210   20:40   0.00   96.5    18    6.1    92     9.1   502.3    0.00 
 210   20:50   0.00   96.4    18    3.6    85     6.6   502.3    0.00 
 210   21:00   0.00   95.2    19    2.7    37     5.0   502.2    0.00 
 210   21:10   0.00   94.6    19    2.3   230     4.2   502.1    0.00 
 210   21:20   0.00   92.9    20    3.4   173     6.6   502.1    0.00 
 210   21:30   0.00   93.0    20    4.0   143     6.9   502.1    0.00 
 210   21:40   0.00   91.8    21    3.6   245     4.9   502.1    0.00 
 210   21:50   0.00   92.0    21    5.0   226     7.3   502.1    0.00 
 210   22:00   0.00   92.4    20    5.7   256     7.9   502.1    0.00 
 210   22:10   0.00   91.6    21    3.5   234     5.3   502.1    0.00 
 210   22:20   0.00   91.6    21    3.4   245     5.6   502.1    0.00 
 210   22:30   0.00   91.4    21    2.8   230     5.9   502.1    0.00 
 210   22:40   0.00   91.7    21    3.7   234     5.2   502.1    0.00 
 210   22:50   0.00   89.4    22    3.8   238     5.0   502.1    0.00 
 210   23:00   0.00   88.5    23    2.1   208     3.1   502.1    0.00 
 210   23:10   0.00   88.3    23    2.2   209     4.2   502.1    0.00 
 210   23:20   0.00   88.0    23    2.4   285     5.6   502.0    0.00 
 210   23:30   0.00   88.4    23    2.0   272     3.9   502.0    0.00 
 210   23:40   0.00   86.8    24    3.0   278     4.2   502.0    0.00 
 210   23:50   0.00   85.9    24    2.9   205     4.5   502.0    0.00 
 211    0:00   0.00   86.0    24    0.7   216     2.8   502.0    0.00 
 211    0:10   0.00   86.5    24    3.2   241     4.3   502.0    0.00 
 211    0:20   0.00   85.7    25    4.0   242     5.0   502.0    0.00 
 211    0:30   0.00   86.1    24    3.8   258     4.7   502.0    0.00 
 211    0:40   0.00   85.9    25    3.6   218     4.7   502.0    0.00 
 211    0:50   0.00   85.3    25    4.1   211     5.3   502.0    0.00 
 211    1:00   0.00   86.1    25    1.7   194     3.9   502.0    0.00 
 211    1:10   0.00   86.0    24    2.7   254     5.5   502.0    0.00 
 211    1:20   0.00   86.3    24    2.8   244     3.7   502.0    0.00 
 211    1:30   0.00   85.0    25    1.9   266     3.5   502.0    0.00 
 211    1:40   0.00   84.7    26    3.3   256     4.2   502.0    0.00 
 211    1:50   0.00   84.5    26    3.4   265     4.4   502.0    0.00 
 211    2:00   0.00   85.1    25    2.8   237     4.4   502.0    0.00 
 211    2:10   0.00   85.1    25    4.6   256     6.0   502.0    0.00 
 211    2:20   0.00   84.8    25    4.2   246     5.4   502.0    0.00 
 211    2:30   0.00   84.3    26    4.5   259     5.8   502.0    0.00 
 211    2:40   0.00   84.3    26    2.7   297     3.9   502.0    0.00 
 211    2:50   0.00   84.4    26    1.7   280     2.9   502.0    0.00 
 211    3:00   0.00   84.3    26    2.6   327     3.7   502.0    0.00 
 211    3:10   0.00   84.9    26    2.9   332     6.0   502.0    0.00 
 211    3:20   0.00   84.8    26    2.6   292     5.1   502.0    0.00 
 211    3:30   0.00   84.1    26    3.9   260     6.2   502.0    0.00 
 211    3:40   0.00   83.9    26    4.7   242     6.4   502.0    0.00 
 211    3:50   0.00   83.7    26    4.7   248     5.6   502.0    0.00 
 211    4:00   0.00   83.0    27    3.7   221     5.2   502.0    0.00 
 211    4:10   0.00   83.8    26    2.8   185     5.3   502.0    0.00 
 211    4:20   0.00   83.5    26    1.3   302     3.1   502.0    0.00 
 211    4:30   0.00   84.3    26    3.4   314     5.0   502.0    0.00 
 211    4:40   0.00   84.3    26    3.2   307     3.9   502.0    0.00 
 211    4:50   0.00   82.9    27    2.9   220     4.6   502.0    0.00 
 211    5:00   0.00   81.8    28    3.8   217     4.6   502.0    0.00 
 211    5:10   0.00   82.1    28    3.7   234     4.8   502.0    0.00 
 211    5:20   0.02   83.1    27    3.2   273     4.9   502.0    0.00 
 211    5:30   0.03   84.3    26    2.0   339     3.0   502.0    0.00 
 211    5:40   0.06   85.5    26    0.4   190     1.5   502.0    0.00 
 211    5:50   0.08   87.3    24    1.6   207     3.4   502.0    0.00 
 211    6:00   0.09   88.7    24    3.0   245     4.3   502.0    0.00 
 211    6:10   0.12   90.6    22    1.8   254     3.5   502.0    0.00 
 211    6:20   0.15   93.8    21    0.6   272     1.8   502.0    0.00 
 211    6:30   0.19   96.8    19    0.0   310     0.6   502.0    0.00 
 211    6:40   0.22   98.2    18    0.6   349     1.6   502.1    0.00 
 211    6:50   0.26   97.6    18    1.1   347     2.3   502.1    0.00 
 211    7:00   0.29   97.5    18    1.6   344     3.3   502.1    0.00 
 211    7:10   0.33   99.3    17    0.5    39     2.0   502.1    0.00 
 211    7:20   0.36  101.1    17    0.4   196     1.7   502.1    0.00 
 211    7:30   0.40  102.0    16    0.5   128     1.5   502.2    0.00 
 211    7:40   0.43  100.7    17    2.7   103     4.7   502.3    0.00 
 211    7:50   0.46  100.3    17    3.1   138     5.6   502.3    0.00 
 211    8:00   0.50  100.5    17    3.4   136     5.3   502.3    0.00 
 211    8:10   0.53  101.2    16    4.3   141     6.6   502.3    0.00 
 211    8:20   0.56  100.9    16    4.2   139     6.8   502.3    0.00 
 211    8:30   0.59  102.3    16    4.0   156     6.4   502.4    0.00 
 211    8:40   0.62  104.6    15    1.6   170     4.4   502.5    0.00 
 211    8:50   0.65  105.3    15    2.9   168     5.3   829.5    0.00 

Return to Anza Borrego Desert Research Center graphs page.


Western Regional Climate Center,wrcc@dri.edu